sensor_id;sensor_type;location;lat;lon;timestamp;P1;durP1;ratioP1;P2;durP2;ratioP2
35366;SDS011;21465;52.278;20.962;2023-02-02T00:01:20;5.22;;;4.38;;
35366;SDS011;21465;52.278;20.962;2023-02-02T00:03:46;3.97;;;3.53;;
35366;SDS011;21465;52.278;20.962;2023-02-02T00:06:21;4.32;;;3.70;;
35366;SDS011;21465;52.278;20.962;2023-02-02T00:08:48;4.10;;;3.70;;
35366;SDS011;21465;52.278;20.962;2023-02-02T00:11:15;4.15;;;3.75;;
35366;SDS011;21465;52.278;20.962;2023-02-02T00:13:41;3.95;;;3.65;;
35366;SDS011;21465;52.278;20.962;2023-02-02T00:18:53;3.92;;;3.63;;
35366;SDS011;21465;52.278;20.962;2023-02-02T00:21:21;3.78;;;3.40;;
35366;SDS011;21465;52.278;20.962;2023-02-02T00:23:47;4.85;;;4.35;;
35366;SDS011;21465;52.278;20.962;2023-02-02T00:26:13;4.40;;;4.00;;
35366;SDS011;21465;52.278;20.962;2023-02-02T00:28:40;4.45;;;4.05;;
35366;SDS011;21465;52.278;20.962;2023-02-02T00:31:06;4.65;;;4.25;;
35366;SDS011;21465;52.278;20.962;2023-02-02T00:33:31;4.55;;;4.18;;
35366;SDS011;21465;52.278;20.962;2023-02-02T00:35:57;3.85;;;3.55;;
35366;SDS011;21465;52.278;20.962;2023-02-02T00:38:23;4.32;;;3.92;;
35366;SDS011;21465;52.278;20.962;2023-02-02T00:40:49;4.65;;;4.25;;
35366;SDS011;21465;52.278;20.962;2023-02-02T00:43:14;4.57;;;4.05;;
35366;SDS011;21465;52.278;20.962;2023-02-02T00:45:40;5.07;;;4.60;;
35366;SDS011;21465;52.278;20.962;2023-02-02T00:48:06;4.43;;;4.03;;
35366;SDS011;21465;52.278;20.962;2023-02-02T00:50:32;4.28;;;3.90;;
35366;SDS011;21465;52.278;20.962;2023-02-02T00:52:58;4.15;;;3.85;;
35366;SDS011;21465;52.278;20.962;2023-02-02T00:55:24;4.25;;;3.85;;
35366;SDS011;21465;52.278;20.962;2023-02-02T00:57:50;4.22;;;3.92;;
35366;SDS011;21465;52.278;20.962;2023-02-02T01:00:20;4.35;;;3.95;;
35366;SDS011;21465;52.278;20.962;2023-02-02T01:02:48;4.78;;;4.38;;
35366;SDS011;21465;52.278;20.962;2023-02-02T01:05:14;4.65;;;4.25;;
35366;SDS011;21465;52.278;20.962;2023-02-02T01:07:40;4.88;;;4.38;;
35366;SDS011;21465;52.278;20.962;2023-02-02T01:10:09;4.40;;;3.92;;
35366;SDS011;21465;52.278;20.962;2023-02-02T01:12:36;4.07;;;3.78;;
35366;SDS011;21465;52.278;20.962;2023-02-02T01:15:02;4.10;;;3.80;;
35366;SDS011;21465;52.278;20.962;2023-02-02T01:17:28;3.72;;;3.42;;
35366;SDS011;21465;52.278;20.962;2023-02-02T01:19:54;4.20;;;3.88;;
35366;SDS011;21465;52.278;20.962;2023-02-02T01:22:19;4.25;;;3.85;;
35366;SDS011;21465;52.278;20.962;2023-02-02T01:24:45;4.25;;;3.85;;
35366;SDS011;21465;52.278;20.962;2023-02-02T01:27:11;4.53;;;4.07;;
35366;SDS011;21465;52.278;20.962;2023-02-02T01:29:37;4.13;;;3.60;;
35366;SDS011;21465;52.278;20.962;2023-02-02T01:32:02;3.80;;;3.50;;
35366;SDS011;21465;52.278;20.962;2023-02-02T01:34:29;3.95;;;3.65;;
35366;SDS011;21465;52.278;20.962;2023-02-02T01:36:54;4.00;;;3.70;;
35366;SDS011;21465;52.278;20.962;2023-02-02T01:39:20;4.18;;;3.70;;
35366;SDS011;21465;52.278;20.962;2023-02-02T01:41:46;4.10;;;3.80;;
35366;SDS011;21465;52.278;20.962;2023-02-02T01:47:16;4.35;;;3.95;;
35366;SDS011;21465;52.278;20.962;2023-02-02T01:49:46;4.32;;;4.00;;
35366;SDS011;21465;52.278;20.962;2023-02-02T01:52:12;3.92;;;3.63;;
35366;SDS011;21465;52.278;20.962;2023-02-02T01:54:41;4.85;;;4.15;;
35366;SDS011;21465;52.278;20.962;2023-02-02T01:57:17;4.43;;;4.03;;
35366;SDS011;21465;52.278;20.962;2023-02-02T02:00:05;5.07;;;4.60;;
35366;SDS011;21465;52.278;20.962;2023-02-02T02:02:36;4.10;;;3.78;;
35366;SDS011;21465;52.278;20.962;2023-02-02T02:05:03;6.07;;;3.95;;
35366;SDS011;21465;52.278;20.962;2023-02-02T02:07:29;4.75;;;4.20;;
35366;SDS011;21465;52.278;20.962;2023-02-02T02:09:55;4.22;;;3.83;;
35366;SDS011;21465;52.278;20.962;2023-02-02T02:12:21;4.47;;;4.07;;
35366;SDS011;21465;52.278;20.962;2023-02-02T02:14:47;6.10;;;4.20;;
35366;SDS011;21465;52.278;20.962;2023-02-02T02:30:25;4.07;;;3.75;;
35366;SDS011;21465;52.278;20.962;2023-02-02T02:33:35;3.97;;;3.58;;
35366;SDS011;21465;52.278;20.962;2023-02-02T02:36:02;3.60;;;3.30;;
35366;SDS011;21465;52.278;20.962;2023-02-02T02:38:38;4.28;;;3.88;;
35366;SDS011;21465;52.278;20.962;2023-02-02T02:41:11;3.78;;;3.47;;
35366;SDS011;21465;52.278;20.962;2023-02-02T02:43:46;3.80;;;3.00;;
35366;SDS011;21465;52.278;20.962;2023-02-02T02:46:15;3.22;;;2.75;;
35366;SDS011;21465;52.278;20.962;2023-02-02T02:48:44;3.17;;;2.88;;
35366;SDS011;21465;52.278;20.962;2023-02-02T02:54:06;2.85;;;2.40;;
35366;SDS011;21465;52.278;20.962;2023-02-02T02:59:16;2.28;;;2.10;;
35366;SDS011;21465;52.278;20.962;2023-02-02T03:01:54;2.80;;;2.60;;
35366;SDS011;21465;52.278;20.962;2023-02-02T03:04:32;2.65;;;2.45;;
35366;SDS011;21465;52.278;20.962;2023-02-02T03:07:09;3.08;;;2.78;;
35366;SDS011;21465;52.278;20.962;2023-02-02T03:09:38;4.35;;;3.05;;
35366;SDS011;21465;52.278;20.962;2023-02-02T03:12:06;3.25;;;2.97;;
35366;SDS011;21465;52.278;20.962;2023-02-02T03:14:35;4.88;;;3.60;;
35366;SDS011;21465;52.278;20.962;2023-02-02T03:17:01;4.22;;;3.35;;
35366;SDS011;21465;52.278;20.962;2023-02-02T03:19:27;4.75;;;3.20;;
35366;SDS011;21465;52.278;20.962;2023-02-02T03:21:53;3.85;;;3.47;;
35366;SDS011;21465;52.278;20.962;2023-02-02T03:24:19;5.53;;;3.50;;
35366;SDS011;21465;52.278;20.962;2023-02-02T03:26:45;6.00;;;3.45;;
35366;SDS011;21465;52.278;20.962;2023-02-02T03:29:10;4.13;;;3.58;;
35366;SDS011;21465;52.278;20.962;2023-02-02T03:31:36;4.25;;;3.25;;
35366;SDS011;21465;52.278;20.962;2023-02-02T03:34:02;5.63;;;3.53;;
35366;SDS011;21465;52.278;20.962;2023-02-02T03:36:28;5.95;;;3.90;;
35366;SDS011;21465;52.278;20.962;2023-02-02T03:38:53;8.35;;;3.85;;
35366;SDS011;21465;52.278;20.962;2023-02-02T03:41:19;5.10;;;3.90;;
35366;SDS011;21465;52.278;20.962;2023-02-02T03:43:45;6.40;;;3.38;;
35366;SDS011;21465;52.278;20.962;2023-02-02T03:46:11;5.18;;;3.58;;
35366;SDS011;21465;52.278;20.962;2023-02-02T03:48:37;8.15;;;3.72;;
35366;SDS011;21465;52.278;20.962;2023-02-02T03:51:09;6.70;;;3.55;;
35366;SDS011;21465;52.278;20.962;2023-02-02T03:53:39;5.75;;;3.65;;
35366;SDS011;21465;52.278;20.962;2023-02-02T03:56:09;5.55;;;3.00;;
35366;SDS011;21465;52.278;20.962;2023-02-02T03:58:34;5.53;;;3.08;;
35366;SDS011;21465;52.278;20.962;2023-02-02T04:01:01;5.10;;;3.13;;
35366;SDS011;21465;52.278;20.962;2023-02-02T04:03:31;6.63;;;4.05;;
35366;SDS011;21465;52.278;20.962;2023-02-02T04:05:57;5.70;;;3.70;;
35366;SDS011;21465;52.278;20.962;2023-02-02T04:08:23;5.40;;;3.92;;
35366;SDS011;21465;52.278;20.962;2023-02-02T04:10:49;7.80;;;3.83;;
35366;SDS011;21465;52.278;20.962;2023-02-02T04:13:15;7.50;;;3.80;;
35366;SDS011;21465;52.278;20.962;2023-02-02T04:15:41;10.55;;;3.75;;
35366;SDS011;21465;52.278;20.962;2023-02-02T04:18:06;5.57;;;3.60;;
35366;SDS011;21465;52.278;20.962;2023-02-02T04:20:32;6.28;;;3.33;;
35366;SDS011;21465;52.278;20.962;2023-02-02T04:22:59;5.50;;;3.10;;
35366;SDS011;21465;52.278;20.962;2023-02-02T04:25:25;5.90;;;3.40;;
35366;SDS011;21465;52.278;20.962;2023-02-02T04:27:50;5.35;;;3.20;;
35366;SDS011;21465;52.278;20.962;2023-02-02T04:30:16;4.95;;;3.60;;
35366;SDS011;21465;52.278;20.962;2023-02-02T04:32:44;6.25;;;2.70;;
35366;SDS011;21465;52.278;20.962;2023-02-02T04:35:10;4.88;;;3.13;;
35366;SDS011;21465;52.278;20.962;2023-02-02T04:37:36;4.68;;;2.40;;
35366;SDS011;21465;52.278;20.962;2023-02-02T04:40:02;6.03;;;2.85;;
35366;SDS011;21465;52.278;20.962;2023-02-02T04:42:31;6.07;;;2.83;;
35366;SDS011;21465;52.278;20.962;2023-02-02T04:44:58;6.25;;;3.63;;
35366;SDS011;21465;52.278;20.962;2023-02-02T04:47:24;6.97;;;2.83;;
35366;SDS011;21465;52.278;20.962;2023-02-02T04:49:50;9.23;;;3.13;;
35366;SDS011;21465;52.278;20.962;2023-02-02T04:52:16;7.65;;;3.20;;
35366;SDS011;21465;52.278;20.962;2023-02-02T04:54:44;7.05;;;3.15;;
35366;SDS011;21465;52.278;20.962;2023-02-02T04:57:10;5.63;;;2.95;;
35366;SDS011;21465;52.278;20.962;2023-02-02T04:59:36;8.70;;;3.50;;
35366;SDS011;21465;52.278;20.962;2023-02-02T05:02:04;6.10;;;3.08;;
35366;SDS011;21465;52.278;20.962;2023-02-02T05:04:30;6.22;;;2.95;;
35366;SDS011;21465;52.278;20.962;2023-02-02T05:06:56;7.53;;;3.00;;
35366;SDS011;21465;52.278;20.962;2023-02-02T05:09:24;6.35;;;2.92;;
35366;SDS011;21465;52.278;20.962;2023-02-02T05:11:50;7.53;;;3.08;;
35366;SDS011;21465;52.278;20.962;2023-02-02T05:14:16;5.82;;;2.40;;
35366;SDS011;21465;52.278;20.962;2023-02-02T05:16:43;6.28;;;2.58;;
35366;SDS011;21465;52.278;20.962;2023-02-02T05:19:09;8.07;;;2.92;;
35366;SDS011;21465;52.278;20.962;2023-02-02T05:21:37;8.85;;;3.15;;
35366;SDS011;21465;52.278;20.962;2023-02-02T05:24:03;7.55;;;2.97;;
35366;SDS011;21465;52.278;20.962;2023-02-02T05:26:28;5.47;;;2.78;;
35366;SDS011;21465;52.278;20.962;2023-02-02T05:28:55;8.38;;;2.53;;
35366;SDS011;21465;52.278;20.962;2023-02-02T05:31:20;4.82;;;2.30;;
35366;SDS011;21465;52.278;20.962;2023-02-02T05:33:46;5.50;;;2.22;;
35366;SDS011;21465;52.278;20.962;2023-02-02T05:36:12;5.45;;;2.03;;
35366;SDS011;21465;52.278;20.962;2023-02-02T05:38:38;3.58;;;1.90;;
35366;SDS011;21465;52.278;20.962;2023-02-02T05:41:04;5.97;;;2.17;;
35366;SDS011;21465;52.278;20.962;2023-02-02T05:43:30;6.28;;;2.65;;
35366;SDS011;21465;52.278;20.962;2023-02-02T05:45:56;4.40;;;1.88;;
35366;SDS011;21465;52.278;20.962;2023-02-02T05:48:25;7.57;;;2.90;;
35366;SDS011;21465;52.278;20.962;2023-02-02T05:53:27;4.95;;;2.10;;
35366;SDS011;21465;52.278;20.962;2023-02-02T05:55:53;5.00;;;1.77;;
35366;SDS011;21465;52.278;20.962;2023-02-02T05:58:19;3.10;;;1.85;;
35366;SDS011;21465;52.278;20.962;2023-02-02T06:00:45;6.63;;;1.52;;
35366;SDS011;21465;52.278;20.962;2023-02-02T06:03:11;3.83;;;1.90;;
35366;SDS011;21465;52.278;20.962;2023-02-02T06:05:37;5.15;;;2.10;;
35366;SDS011;21465;52.278;20.962;2023-02-02T06:08:03;4.60;;;2.20;;
35366;SDS011;21465;52.278;20.962;2023-02-02T06:10:29;4.20;;;2.17;;
35366;SDS011;21465;52.278;20.962;2023-02-02T06:12:56;3.88;;;1.85;;
35366;SDS011;21465;52.278;20.962;2023-02-02T06:15:22;5.88;;;2.15;;
35366;SDS011;21465;52.278;20.962;2023-02-02T06:17:48;5.70;;;1.88;;
35366;SDS011;21465;52.278;20.962;2023-02-02T06:20:14;4.57;;;2.15;;
35366;SDS011;21465;52.278;20.962;2023-02-02T06:22:40;6.28;;;1.90;;
35366;SDS011;21465;52.278;20.962;2023-02-02T06:25:07;5.10;;;2.45;;
35366;SDS011;21465;52.278;20.962;2023-02-02T06:27:33;3.72;;;1.65;;
35366;SDS011;21465;52.278;20.962;2023-02-02T06:29:58;4.25;;;1.90;;
35366;SDS011;21465;52.278;20.962;2023-02-02T06:32:24;5.32;;;2.10;;
35366;SDS011;21465;52.278;20.962;2023-02-02T06:35:37;4.45;;;1.90;;
35366;SDS011;21465;52.278;20.962;2023-02-02T06:38:18;4.10;;;1.85;;
35366;SDS011;21465;52.278;20.962;2023-02-02T06:40:49;4.18;;;2.28;;
35366;SDS011;21465;52.278;20.962;2023-02-02T06:43:20;4.70;;;2.13;;
35366;SDS011;21465;52.278;20.962;2023-02-02T06:45:46;5.03;;;2.60;;
35366;SDS011;21465;52.278;20.962;2023-02-02T06:48:12;3.88;;;2.50;;
35366;SDS011;21465;52.278;20.962;2023-02-02T06:50:38;3.72;;;2.00;;
35366;SDS011;21465;52.278;20.962;2023-02-02T06:53:04;6.35;;;2.10;;
35366;SDS011;21465;52.278;20.962;2023-02-02T06:55:30;4.68;;;2.33;;
35366;SDS011;21465;52.278;20.962;2023-02-02T06:57:57;3.20;;;1.90;;
35366;SDS011;21465;52.278;20.962;2023-02-02T07:00:24;3.88;;;1.77;;
35366;SDS011;21465;52.278;20.962;2023-02-02T07:02:51;5.65;;;1.75;;
35366;SDS011;21465;52.278;20.962;2023-02-02T07:05:17;3.78;;;2.00;;
35366;SDS011;21465;52.278;20.962;2023-02-02T07:07:49;3.78;;;1.58;;
35366;SDS011;21465;52.278;20.962;2023-02-02T07:10:15;2.95;;;1.70;;
35366;SDS011;21465;52.278;20.962;2023-02-02T07:12:41;4.18;;;1.73;;
35366;SDS011;21465;52.278;20.962;2023-02-02T07:15:07;3.05;;;2.00;;
35366;SDS011;21465;52.278;20.962;2023-02-02T07:17:33;2.53;;;1.90;;
35366;SDS011;21465;52.278;20.962;2023-02-02T07:19:59;3.28;;;2.22;;
35366;SDS011;21465;52.278;20.962;2023-02-02T07:22:25;2.72;;;1.90;;
35366;SDS011;21465;52.278;20.962;2023-02-02T07:24:50;2.35;;;1.65;;
35366;SDS011;21465;52.278;20.962;2023-02-02T07:27:16;4.38;;;2.03;;
35366;SDS011;21465;52.278;20.962;2023-02-02T07:29:43;3.95;;;2.15;;
35366;SDS011;21465;52.278;20.962;2023-02-02T07:32:09;3.92;;;2.13;;
35366;SDS011;21465;52.278;20.962;2023-02-02T07:34:38;3.85;;;2.55;;
35366;SDS011;21465;52.278;20.962;2023-02-02T07:37:04;3.67;;;2.25;;
35366;SDS011;21465;52.278;20.962;2023-02-02T07:39:29;3.03;;;2.40;;
35366;SDS011;21465;52.278;20.962;2023-02-02T07:41:55;4.28;;;2.58;;
35366;SDS011;21465;52.278;20.962;2023-02-02T07:44:21;2.88;;;2.40;;
35366;SDS011;21465;52.278;20.962;2023-02-02T07:46:47;3.83;;;2.72;;
35366;SDS011;21465;52.278;20.962;2023-02-02T07:49:13;4.15;;;2.75;;
35366;SDS011;21465;52.278;20.962;2023-02-02T07:51:40;5.10;;;2.40;;
35366;SDS011;21465;52.278;20.962;2023-02-02T07:54:09;3.45;;;2.75;;
35366;SDS011;21465;52.278;20.962;2023-02-02T07:56:36;3.58;;;2.90;;
35366;SDS011;21465;52.278;20.962;2023-02-02T07:59:02;3.38;;;2.80;;
35366;SDS011;21465;52.278;20.962;2023-02-02T08:01:28;5.28;;;2.80;;
35366;SDS011;21465;52.278;20.962;2023-02-02T08:03:55;4.53;;;3.17;;
35366;SDS011;21465;52.278;20.962;2023-02-02T08:06:24;2.73;;;2.20;;
35366;SDS011;21465;52.278;20.962;2023-02-02T08:08:55;2.42;;;2.22;;
35366;SDS011;21465;52.278;20.962;2023-02-02T08:11:21;3.80;;;2.53;;
35366;SDS011;21465;52.278;20.962;2023-02-02T08:13:49;3.65;;;2.80;;
35366;SDS011;21465;52.278;20.962;2023-02-02T08:16:15;3.42;;;2.38;;
35366;SDS011;21465;52.278;20.962;2023-02-02T08:18:42;3.75;;;2.80;;
35366;SDS011;21465;52.278;20.962;2023-02-02T08:21:08;3.58;;;2.30;;
35366;SDS011;21465;52.278;20.962;2023-02-02T08:23:34;2.67;;;2.00;;
35366;SDS011;21465;52.278;20.962;2023-02-02T08:26:04;2.22;;;2.13;;
35366;SDS011;21465;52.278;20.962;2023-02-02T08:28:36;2.65;;;2.38;;
35366;SDS011;21465;52.278;20.962;2023-02-02T08:31:04;2.38;;;2.13;;
35366;SDS011;21465;52.278;20.962;2023-02-02T08:33:34;2.13;;;1.95;;
35366;SDS011;21465;52.278;20.962;2023-02-02T08:36:00;2.05;;;1.85;;
35366;SDS011;21465;52.278;20.962;2023-02-02T08:38:26;2.60;;;1.58;;
35366;SDS011;21465;52.278;20.962;2023-02-02T08:40:52;1.88;;;1.60;;
35366;SDS011;21465;52.278;20.962;2023-02-02T08:43:19;2.03;;;1.67;;
35366;SDS011;21465;52.278;20.962;2023-02-02T08:45:44;2.85;;;2.03;;
35366;SDS011;21465;52.278;20.962;2023-02-02T08:48:10;2.28;;;1.50;;
35366;SDS011;21465;52.278;20.962;2023-02-02T08:50:38;3.00;;;2.13;;
35366;SDS011;21465;52.278;20.962;2023-02-02T08:53:04;4.13;;;1.98;;
35366;SDS011;21465;52.278;20.962;2023-02-02T08:55:33;3.28;;;1.85;;
35366;SDS011;21465;52.278;20.962;2023-02-02T08:57:59;1.90;;;1.80;;
35366;SDS011;21465;52.278;20.962;2023-02-02T09:00:26;2.60;;;2.40;;
35366;SDS011;21465;52.278;20.962;2023-02-02T09:02:52;2.17;;;1.92;;
35366;SDS011;21465;52.278;20.962;2023-02-02T09:05:18;1.70;;;1.60;;
35366;SDS011;21465;52.278;20.962;2023-02-02T09:07:44;2.00;;;1.58;;
35366;SDS011;21465;52.278;20.962;2023-02-02T09:10:09;1.90;;;1.60;;
35366;SDS011;21465;52.278;20.962;2023-02-02T09:12:35;2.15;;;1.80;;
35366;SDS011;21465;52.278;20.962;2023-02-02T09:15:01;2.30;;;1.80;;
35366;SDS011;21465;52.278;20.962;2023-02-02T09:17:27;2.28;;;2.05;;
35366;SDS011;21465;52.278;20.962;2023-02-02T09:19:54;1.95;;;1.70;;
35366;SDS011;21465;52.278;20.962;2023-02-02T09:22:19;2.03;;;1.70;;
35366;SDS011;21465;52.278;20.962;2023-02-02T09:24:45;2.20;;;2.00;;
35366;SDS011;21465;52.278;20.962;2023-02-02T09:27:11;2.05;;;1.60;;
35366;SDS011;21465;52.278;20.962;2023-02-02T09:29:37;2.03;;;1.90;;
35366;SDS011;21465;52.278;20.962;2023-02-02T09:32:03;1.92;;;1.80;;
35366;SDS011;21465;52.278;20.962;2023-02-02T09:34:28;2.53;;;2.03;;
35366;SDS011;21465;52.278;20.962;2023-02-02T09:36:54;2.05;;;1.83;;
35366;SDS011;21465;52.278;20.962;2023-02-02T09:39:20;2.13;;;1.92;;
35366;SDS011;21465;52.278;20.962;2023-02-02T09:44:46;1.80;;;1.70;;
35366;SDS011;21465;52.278;20.962;2023-02-02T09:47:20;2.25;;;1.80;;
35366;SDS011;21465;52.278;20.962;2023-02-02T09:49:59;2.92;;;1.90;;
35366;SDS011;21465;52.278;20.962;2023-02-02T09:52:39;2.42;;;2.13;;
35366;SDS011;21465;52.278;20.962;2023-02-02T09:55:14;2.38;;;2.17;;
35366;SDS011;21465;52.278;20.962;2023-02-02T09:57:44;2.88;;;1.92;;
35366;SDS011;21465;52.278;20.962;2023-02-02T10:00:26;2.78;;;2.00;;
35366;SDS011;21465;52.278;20.962;2023-02-02T10:03:00;2.42;;;2.20;;
35366;SDS011;21465;52.278;20.962;2023-02-02T10:05:41;2.42;;;2.20;;
35366;SDS011;21465;52.278;20.962;2023-02-02T10:08:12;2.60;;;2.40;;
35366;SDS011;21465;52.278;20.962;2023-02-02T10:10:45;3.50;;;2.45;;
35366;SDS011;21465;52.278;20.962;2023-02-02T10:13:23;3.63;;;2.88;;
35366;SDS011;21465;52.278;20.962;2023-02-02T10:15:58;2.92;;;2.45;;
35366;SDS011;21465;52.278;20.962;2023-02-02T10:18:47;3.75;;;3.10;;
35366;SDS011;21465;52.278;20.962;2023-02-02T10:21:25;4.15;;;3.05;;
35366;SDS011;21465;52.278;20.962;2023-02-02T10:23:54;3.35;;;2.65;;
35366;SDS011;21465;52.278;20.962;2023-02-02T10:29:05;2.58;;;2.30;;
35366;SDS011;21465;52.278;20.962;2023-02-02T10:31:41;2.00;;;1.83;;
35366;SDS011;21465;52.278;20.962;2023-02-02T10:34:10;2.30;;;1.98;;
35366;SDS011;21465;52.278;20.962;2023-02-02T10:39:41;1.73;;;1.63;;
35366;SDS011;21465;52.278;20.962;2023-02-02T10:44:52;2.47;;;1.60;;
35366;SDS011;21465;52.278;20.962;2023-02-02T10:47:22;1.65;;;1.50;;
35366;SDS011;21465;52.278;20.962;2023-02-02T10:49:59;2.30;;;2.10;;
35366;SDS011;21465;52.278;20.962;2023-02-02T10:52:32;2.83;;;2.10;;
35366;SDS011;21465;52.278;20.962;2023-02-02T10:57:51;2.55;;;2.15;;
35366;SDS011;21465;52.278;20.962;2023-02-02T11:00:22;2.55;;;2.15;;
35366;SDS011;21465;52.278;20.962;2023-02-02T11:02:52;2.78;;;2.42;;
35366;SDS011;21465;52.278;20.962;2023-02-02T11:05:19;4.03;;;2.60;;
35366;SDS011;21465;52.278;20.962;2023-02-02T11:08:10;5.00;;;3.50;;
35366;SDS011;21465;52.278;20.962;2023-02-02T11:10:38;4.40;;;3.72;;
35366;SDS011;21465;52.278;20.962;2023-02-02T11:13:05;4.60;;;3.40;;
35366;SDS011;21465;52.278;20.962;2023-02-02T11:15:32;2.72;;;2.53;;
35366;SDS011;21465;52.278;20.962;2023-02-02T11:20:51;3.08;;;2.78;;
35366;SDS011;21465;52.278;20.962;2023-02-02T11:23:17;3.42;;;3.03;;
35366;SDS011;21465;52.278;20.962;2023-02-02T11:25:45;3.53;;;3.22;;
35366;SDS011;21465;52.278;20.962;2023-02-02T11:28:22;3.50;;;3.20;;
35366;SDS011;21465;52.278;20.962;2023-02-02T11:30:49;3.30;;;3.03;;
35366;SDS011;21465;52.278;20.962;2023-02-02T11:33:25;3.17;;;2.97;;
35366;SDS011;21465;52.278;20.962;2023-02-02T11:35:55;4.05;;;3.42;;
35366;SDS011;21465;52.278;20.962;2023-02-02T11:38:20;3.47;;;3.17;;
35366;SDS011;21465;52.278;20.962;2023-02-02T11:40:54;4.00;;;3.70;;
35366;SDS011;21465;52.278;20.962;2023-02-02T11:46:13;4.20;;;3.90;;
35366;SDS011;21465;52.278;20.962;2023-02-02T11:48:49;6.30;;;3.95;;
35366;SDS011;21465;52.278;20.962;2023-02-02T11:51:20;5.67;;;5.20;;
35366;SDS011;21465;52.278;20.962;2023-02-02T11:53:47;4.32;;;3.92;;
35366;SDS011;21465;52.278;20.962;2023-02-02T11:56:23;4.78;;;3.90;;
35366;SDS011;21465;52.278;20.962;2023-02-02T11:58:51;4.63;;;4.22;;
35366;SDS011;21465;52.278;20.962;2023-02-02T12:03:56;4.53;;;4.13;;
35366;SDS011;21465;52.278;20.962;2023-02-02T12:06:37;4.40;;;4.00;;
35366;SDS011;21465;52.278;20.962;2023-02-02T12:09:13;4.20;;;3.90;;
35366;SDS011;21465;52.278;20.962;2023-02-02T12:11:47;4.78;;;4.28;;
35366;SDS011;21465;52.278;20.962;2023-02-02T12:14:19;4.90;;;4.30;;
35366;SDS011;21465;52.278;20.962;2023-02-02T12:16:55;4.90;;;4.50;;
35366;SDS011;21465;52.278;20.962;2023-02-02T12:27:57;5.75;;;4.65;;
35366;SDS011;21465;52.278;20.962;2023-02-02T12:30:33;4.60;;;4.20;;
35366;SDS011;21465;52.278;20.962;2023-02-02T12:38:44;4.97;;;4.00;;
35366;SDS011;21465;52.278;20.962;2023-02-02T12:52:18;4.00;;;3.70;;
35366;SDS011;21465;52.278;20.962;2023-02-02T13:02:56;2.65;;;2.45;;
35366;SDS011;21465;52.278;20.962;2023-02-02T13:11:19;1.67;;;1.58;;
35366;SDS011;21465;52.278;20.962;2023-02-02T13:14:08;2.05;;;1.85;;
35366;SDS011;21465;52.278;20.962;2023-02-02T13:16:38;1.73;;;1.50;;
35366;SDS011;21465;52.278;20.962;2023-02-02T13:19:10;1.70;;;1.60;;
35366;SDS011;21465;52.278;20.962;2023-02-02T13:21:42;1.50;;;1.40;;
35366;SDS011;21465;52.278;20.962;2023-02-02T13:24:11;2.05;;;1.50;;
35366;SDS011;21465;52.278;20.962;2023-02-02T13:26:42;2.45;;;1.50;;
35366;SDS011;21465;52.278;20.962;2023-02-02T13:31:58;1.70;;;1.60;;
35366;SDS011;21465;52.278;20.962;2023-02-02T13:34:48;1.45;;;1.35;;
35366;SDS011;21465;52.278;20.962;2023-02-02T13:37:19;2.03;;;1.45;;
35366;SDS011;21465;52.278;20.962;2023-02-02T13:42:50;1.63;;;1.48;;
35366;SDS011;21465;52.278;20.962;2023-02-02T13:48:15;1.77;;;1.55;;
35366;SDS011;21465;52.278;20.962;2023-02-02T13:51:32;1.80;;;1.60;;
35366;SDS011;21465;52.278;20.962;2023-02-02T13:59:11;2.00;;;1.85;;
35366;SDS011;21465;52.278;20.962;2023-02-02T14:01:57;1.88;;;1.75;;
35366;SDS011;21465;52.278;20.962;2023-02-02T14:04:27;2.28;;;1.63;;
35366;SDS011;21465;52.278;20.962;2023-02-02T14:07:03;1.70;;;1.33;;
35366;SDS011;21465;52.278;20.962;2023-02-02T14:09:31;1.65;;;1.48;;
35366;SDS011;21465;52.278;20.962;2023-02-02T14:12:07;2.08;;;1.67;;
35366;SDS011;21465;52.278;20.962;2023-02-02T14:14:34;3.25;;;1.70;;
35366;SDS011;21465;52.278;20.962;2023-02-02T14:17:07;3.25;;;1.85;;
35366;SDS011;21465;52.278;20.962;2023-02-02T14:19:55;2.05;;;1.83;;
35366;SDS011;21465;52.278;20.962;2023-02-02T14:28:02;4.22;;;3.03;;
35366;SDS011;21465;52.278;20.962;2023-02-02T14:30:33;3.83;;;2.95;;
35366;SDS011;21465;52.278;20.962;2023-02-02T14:40:46;5.55;;;3.80;;
35366;SDS011;21465;52.278;20.962;2023-02-02T14:43:18;6.28;;;3.92;;
35366;SDS011;21465;52.278;20.962;2023-02-02T14:51:24;3.25;;;2.58;;
35366;SDS011;21465;52.278;20.962;2023-02-02T14:53:52;2.92;;;2.10;;
35366;SDS011;21465;52.278;20.962;2023-02-02T14:56:20;6.00;;;3.70;;
35366;SDS011;21465;52.278;20.962;2023-02-02T14:59:11;4.32;;;2.65;;
35366;SDS011;21465;52.278;20.962;2023-02-02T15:01:42;3.40;;;2.78;;
35366;SDS011;21465;52.278;20.962;2023-02-02T15:06:44;4.20;;;3.05;;
35366;SDS011;21465;52.278;20.962;2023-02-02T15:14:24;3.38;;;2.90;;
35366;SDS011;21465;52.278;20.962;2023-02-02T15:16:55;3.13;;;2.10;;
35366;SDS011;21465;52.278;20.962;2023-02-02T15:19:24;2.65;;;1.92;;
35366;SDS011;21465;52.278;20.962;2023-02-02T15:21:55;1.83;;;1.40;;
35366;SDS011;21465;52.278;20.962;2023-02-02T15:27:14;1.20;;;0.95;;
35366;SDS011;21465;52.278;20.962;2023-02-02T15:29:43;0.52;;;0.40;;
35366;SDS011;21465;52.278;20.962;2023-02-02T15:32:13;0.30;;;0.30;;
35366;SDS011;21465;52.278;20.962;2023-02-02T15:34:42;0.82;;;0.82;;
35366;SDS011;21465;52.278;20.962;2023-02-02T15:37:14;0.82;;;0.57;;
35366;SDS011;21465;52.278;20.962;2023-02-02T15:39:50;0.68;;;0.60;;
35366;SDS011;21465;52.278;20.962;2023-02-02T15:42:26;1.27;;;0.60;;
35366;SDS011;21465;52.278;20.962;2023-02-02T15:45:33;1.20;;;0.88;;
35366;SDS011;21465;52.278;20.962;2023-02-02T15:48:13;0.75;;;0.60;;
35366;SDS011;21465;52.278;20.962;2023-02-02T15:50:44;1.23;;;0.57;;
35366;SDS011;21465;52.278;20.962;2023-02-02T15:53:17;1.08;;;0.60;;
35366;SDS011;21465;52.278;20.962;2023-02-02T15:55:45;0.80;;;0.80;;
35366;SDS011;21465;52.278;20.962;2023-02-02T16:01:13;1.48;;;1.00;;
35366;SDS011;21465;52.278;20.962;2023-02-02T16:03:46;1.17;;;1.00;;
35366;SDS011;21465;52.278;20.962;2023-02-02T16:06:14;1.80;;;1.20;;
35366;SDS011;21465;52.278;20.962;2023-02-02T16:08:42;1.38;;;1.20;;
35366;SDS011;21465;52.278;20.962;2023-02-02T16:11:12;2.08;;;0.98;;
35366;SDS011;21465;52.278;20.962;2023-02-02T16:14:07;1.25;;;1.15;;
35366;SDS011;21465;52.278;20.962;2023-02-02T16:16:35;1.20;;;1.10;;
35366;SDS011;21465;52.278;20.962;2023-02-02T16:19:14;1.50;;;1.20;;
35366;SDS011;21465;52.278;20.962;2023-02-02T16:21:57;1.33;;;1.17;;
35366;SDS011;21465;52.278;20.962;2023-02-02T16:24:27;1.73;;;1.23;;
35366;SDS011;21465;52.278;20.962;2023-02-02T16:26:54;1.88;;;1.02;;
35366;SDS011;21465;52.278;20.962;2023-02-02T16:29:23;1.27;;;1.10;;
35366;SDS011;21465;52.278;20.962;2023-02-02T16:31:49;1.02;;;0.80;;
35366;SDS011;21465;52.278;20.962;2023-02-02T16:34:58;1.58;;;1.02;;
35366;SDS011;21465;52.278;20.962;2023-02-02T16:39:31;1.13;;;0.80;;
35366;SDS011;21465;52.278;20.962;2023-02-02T16:42:10;1.08;;;0.80;;
35366;SDS011;21465;52.278;20.962;2023-02-02T16:44:46;1.88;;;1.13;;
35366;SDS011;21465;52.278;20.962;2023-02-02T16:49:51;1.38;;;1.15;;
35366;SDS011;21465;52.278;20.962;2023-02-02T16:52:33;3.78;;;1.85;;
35366;SDS011;21465;52.278;20.962;2023-02-02T16:55:04;3.90;;;1.80;;
35366;SDS011;21465;52.278;20.962;2023-02-02T16:57:35;2.15;;;1.60;;
35366;SDS011;21465;52.278;20.962;2023-02-02T17:00:03;3.03;;;1.88;;
35366;SDS011;21465;52.278;20.962;2023-02-02T17:02:34;1.75;;;1.40;;
35366;SDS011;21465;52.278;20.962;2023-02-02T17:05:06;3.38;;;1.75;;
35366;SDS011;21465;52.278;20.962;2023-02-02T17:08:16;4.00;;;1.95;;